sensor_id;sensor_type;location;lat;lon;timestamp;temperature;humidity
48988;DHT22;34799;51.440;-2.534;2023-05-10T00:01:18;11.90;99.90
48988;DHT22;34799;51.440;-2.534;2023-05-10T00:03:46;11.80;99.90
48988;DHT22;34799;51.440;-2.534;2023-05-10T00:06:14;11.80;99.90
48988;DHT22;34799;51.440;-2.534;2023-05-10T00:08:41;11.80;99.90
48988;DHT22;34799;51.440;-2.534;2023-05-10T00:11:08;11.80;99.90
48988;DHT22;34799;51.440;-2.534;2023-05-10T00:13:35;11.80;99.90
48988;DHT22;34799;51.440;-2.534;2023-05-10T00:16:02;11.70;99.90
48988;DHT22;34799;51.440;-2.534;2023-05-10T00:18:29;11.70;99.90
48988;DHT22;34799;51.440;-2.534;2023-05-10T00:20:56;11.70;99.90
48988;DHT22;34799;51.440;-2.534;2023-05-10T00:23:23;11.80;99.90
48988;DHT22;34799;51.440;-2.534;2023-05-10T00:25:51;11.60;99.90
48988;DHT22;34799;51.440;-2.534;2023-05-10T00:28:19;11.80;99.90
48988;DHT22;34799;51.440;-2.534;2023-05-10T00:30:46;12.00;99.90
48988;DHT22;34799;51.440;-2.534;2023-05-10T00:33:13;11.60;99.90
48988;DHT22;34799;51.440;-2.534;2023-05-10T00:35:41;11.60;99.90
48988;DHT22;34799;51.440;-2.534;2023-05-10T00:38:08;12.00;99.90
48988;DHT22;34799;51.440;-2.534;2023-05-10T00:40:36;11.60;99.90
48988;DHT22;34799;51.440;-2.534;2023-05-10T00:43:08;11.60;99.90
48988;DHT22;34799;51.440;-2.534;2023-05-10T00:45:36;11.60;99.90
48988;DHT22;34799;51.440;-2.534;2023-05-10T00:48:04;11.80;99.90
48988;DHT22;34799;51.440;-2.534;2023-05-10T00:50:32;11.60;99.90
48988;DHT22;34799;51.440;-2.534;2023-05-10T00:53:02;12.40;99.90
48988;DHT22;34799;51.440;-2.534;2023-05-10T00:55:29;11.60;99.90
48988;DHT22;34799;51.440;-2.534;2023-05-10T00:57:57;11.60;99.90
48988;DHT22;34799;51.440;-2.534;2023-05-10T01:00:24;11.60;99.90
48988;DHT22;34799;51.440;-2.534;2023-05-10T01:02:53;11.70;99.90
48988;DHT22;34799;51.440;-2.534;2023-05-10T01:05:22;11.50;99.90
48988;DHT22;34799;51.440;-2.534;2023-05-10T01:07:50;11.50;99.90
48988;DHT22;34799;51.440;-2.534;2023-05-10T01:10:17;12.00;99.90
48988;DHT22;34799;51.440;-2.534;2023-05-10T01:12:45;11.60;99.90
48988;DHT22;34799;51.440;-2.534;2023-05-10T01:15:16;11.50;99.90
48988;DHT22;34799;51.440;-2.534;2023-05-10T01:17:45;11.50;99.90
48988;DHT22;34799;51.440;-2.534;2023-05-10T01:20:14;11.40;99.90
48988;DHT22;34799;51.440;-2.534;2023-05-10T01:36:12;11.40;99.90
48988;DHT22;34799;51.440;-2.534;2023-05-10T01:42:08;11.40;99.90
48988;DHT22;34799;51.440;-2.534;2023-05-10T01:44:49;11.40;99.90
48988;DHT22;34799;51.440;-2.534;2023-05-10T01:47:27;11.40;99.90
48988;DHT22;34799;51.440;-2.534;2023-05-10T01:50:02;11.30;99.90
48988;DHT22;34799;51.440;-2.534;2023-05-10T01:52:34;11.40;99.90
48988;DHT22;34799;51.440;-2.534;2023-05-10T01:55:08;11.40;99.90
48988;DHT22;34799;51.440;-2.534;2023-05-10T01:57:39;11.40;99.90
48988;DHT22;34799;51.440;-2.534;2023-05-10T02:00:08;11.50;99.90
48988;DHT22;34799;51.440;-2.534;2023-05-10T02:02:48;11.50;99.90
48988;DHT22;34799;51.440;-2.534;2023-05-10T02:05:17;11.50;99.90
48988;DHT22;34799;51.440;-2.534;2023-05-10T02:07:45;11.50;99.90
48988;DHT22;34799;51.440;-2.534;2023-05-10T02:10:13;11.50;99.90
48988;DHT22;34799;51.440;-2.534;2023-05-10T02:12:46;11.50;99.90
48988;DHT22;34799;51.440;-2.534;2023-05-10T02:15:20;11.50;99.90
48988;DHT22;34799;51.440;-2.534;2023-05-10T02:17:48;11.50;99.90
48988;DHT22;34799;51.440;-2.534;2023-05-10T02:20:16;11.50;99.90
48988;DHT22;34799;51.440;-2.534;2023-05-10T02:22:49;11.50;99.90
48988;DHT22;34799;51.440;-2.534;2023-05-10T02:25:19;11.50;99.90
48988;DHT22;34799;51.440;-2.534;2023-05-10T02:27:49;11.40;99.90
48988;DHT22;34799;51.440;-2.534;2023-05-10T02:30:17;11.50;99.90
48988;DHT22;34799;51.440;-2.534;2023-05-10T02:32:46;11.40;99.90
48988;DHT22;34799;51.440;-2.534;2023-05-10T02:35:14;11.50;99.90
48988;DHT22;34799;51.440;-2.534;2023-05-10T02:37:44;11.90;99.90
48988;DHT22;34799;51.440;-2.534;2023-05-10T02:40:13;11.50;99.90
48988;DHT22;34799;51.440;-2.534;2023-05-10T02:42:42;11.60;99.90
48988;DHT22;34799;51.440;-2.534;2023-05-10T02:45:15;11.50;99.90
48988;DHT22;34799;51.440;-2.534;2023-05-10T02:47:44;11.40;99.90
48988;DHT22;34799;51.440;-2.534;2023-05-10T02:50:13;11.50;99.90
48988;DHT22;34799;51.440;-2.534;2023-05-10T02:52:45;11.60;99.90
48988;DHT22;34799;51.440;-2.534;2023-05-10T02:55:15;11.50;99.90
48988;DHT22;34799;51.440;-2.534;2023-05-10T02:57:51;12.00;99.90
48988;DHT22;34799;51.440;-2.534;2023-05-10T03:00:18;11.50;99.90
48988;DHT22;34799;51.440;-2.534;2023-05-10T03:02:45;11.50;99.90
48988;DHT22;34799;51.440;-2.534;2023-05-10T03:05:13;11.60;99.90
48988;DHT22;34799;51.440;-2.534;2023-05-10T03:07:40;11.50;99.90
48988;DHT22;34799;51.440;-2.534;2023-05-10T03:10:08;11.50;99.90
48988;DHT22;34799;51.440;-2.534;2023-05-10T03:13:06;11.50;99.90
48988;DHT22;34799;51.440;-2.534;2023-05-10T03:15:53;11.50;99.90
48988;DHT22;34799;51.440;-2.534;2023-05-10T03:18:37;11.50;99.90
48988;DHT22;34799;51.440;-2.534;2023-05-10T03:21:09;11.60;99.90
48988;DHT22;34799;51.440;-2.534;2023-05-10T03:23:51;11.60;99.90
48988;DHT22;34799;51.440;-2.534;2023-05-10T03:26:26;11.60;99.90
48988;DHT22;34799;51.440;-2.534;2023-05-10T03:29:06;11.60;99.90
48988;DHT22;34799;51.440;-2.534;2023-05-10T03:31:34;11.60;99.90
48988;DHT22;34799;51.440;-2.534;2023-05-10T03:34:01;11.60;99.90
48988;DHT22;34799;51.440;-2.534;2023-05-10T03:36:28;11.60;99.90
48988;DHT22;34799;51.440;-2.534;2023-05-10T03:38:55;11.80;99.90
48988;DHT22;34799;51.440;-2.534;2023-05-10T03:41:25;11.90;99.90
48988;DHT22;34799;51.440;-2.534;2023-05-10T03:43:53;11.80;99.90
48988;DHT22;34799;51.440;-2.534;2023-05-10T03:46:20;10.40;99.90
48988;DHT22;34799;51.440;-2.534;2023-05-10T03:48:47;11.70;99.90
48988;DHT22;34799;51.440;-2.534;2023-05-10T03:51:14;11.70;99.90
48988;DHT22;34799;51.440;-2.534;2023-05-10T03:53:41;11.70;99.90
48988;DHT22;34799;51.440;-2.534;2023-05-10T03:56:08;11.80;99.90
48988;DHT22;34799;51.440;-2.534;2023-05-10T03:58:35;12.50;99.90
48988;DHT22;34799;51.440;-2.534;2023-05-10T04:01:03;11.50;99.90
48988;DHT22;34799;51.440;-2.534;2023-05-10T04:03:31;11.60;99.90
48988;DHT22;34799;51.440;-2.534;2023-05-10T04:06:02;11.50;99.90
48988;DHT22;34799;51.440;-2.534;2023-05-10T04:08:29;11.40;99.90
48988;DHT22;34799;51.440;-2.534;2023-05-10T04:11:11;11.40;99.90
48988;DHT22;34799;51.440;-2.534;2023-05-10T04:13:39;11.40;99.90
48988;DHT22;34799;51.440;-2.534;2023-05-10T04:16:06;11.30;99.90
48988;DHT22;34799;51.440;-2.534;2023-05-10T04:18:33;11.30;99.90
48988;DHT22;34799;51.440;-2.534;2023-05-10T04:21:00;11.60;99.90
48988;DHT22;34799;51.440;-2.534;2023-05-10T04:23:27;11.20;99.90
48988;DHT22;34799;51.440;-2.534;2023-05-10T04:26:00;11.10;99.90
48988;DHT22;34799;51.440;-2.534;2023-05-10T04:28:27;11.10;99.90
48988;DHT22;34799;51.440;-2.534;2023-05-10T04:31:01;12.00;99.90
48988;DHT22;34799;51.440;-2.534;2023-05-10T04:33:29;11.20;99.90
48988;DHT22;34799;51.440;-2.534;2023-05-10T04:35:56;11.30;99.90
48988;DHT22;34799;51.440;-2.534;2023-05-10T04:38:23;11.10;99.90
48988;DHT22;34799;51.440;-2.534;2023-05-10T04:40:50;11.00;99.90
48988;DHT22;34799;51.440;-2.534;2023-05-10T04:43:19;11.00;99.90
48988;DHT22;34799;51.440;-2.534;2023-05-10T04:45:46;11.10;99.90
48988;DHT22;34799;51.440;-2.534;2023-05-10T04:48:13;11.50;99.90
48988;DHT22;34799;51.440;-2.534;2023-05-10T04:50:40;11.10;99.90
48988;DHT22;34799;51.440;-2.534;2023-05-10T04:53:07;12.30;99.90
48988;DHT22;34799;51.440;-2.534;2023-05-10T04:55:34;11.70;99.90
48988;DHT22;34799;51.440;-2.534;2023-05-10T04:58:01;11.20;99.90
48988;DHT22;34799;51.440;-2.534;2023-05-10T05:00:29;11.30;99.90
48988;DHT22;34799;51.440;-2.534;2023-05-10T05:02:58;11.60;99.90
48988;DHT22;34799;51.440;-2.534;2023-05-10T05:05:25;11.40;99.90
48988;DHT22;34799;51.440;-2.534;2023-05-10T05:07:52;11.50;99.90
48988;DHT22;34799;51.440;-2.534;2023-05-10T05:10:20;11.50;99.90
48988;DHT22;34799;51.440;-2.534;2023-05-10T05:12:47;11.50;99.90
48988;DHT22;34799;51.440;-2.534;2023-05-10T05:15:14;11.60;99.90
48988;DHT22;34799;51.440;-2.534;2023-05-10T05:17:43;11.60;99.90
48988;DHT22;34799;51.440;-2.534;2023-05-10T05:20:12;11.60;99.90
48988;DHT22;34799;51.440;-2.534;2023-05-10T05:22:39;11.70;99.90
48988;DHT22;34799;51.440;-2.534;2023-05-10T05:25:07;11.70;99.90
48988;DHT22;34799;51.440;-2.534;2023-05-10T05:27:34;11.70;99.90
48988;DHT22;34799;51.440;-2.534;2023-05-10T05:30:01;12.70;99.90
48988;DHT22;34799;51.440;-2.534;2023-05-10T05:32:29;12.00;99.90
48988;DHT22;34799;51.440;-2.534;2023-05-10T05:34:57;11.90;99.90
48988;DHT22;34799;51.440;-2.534;2023-05-10T05:37:26;12.00;99.90
48988;DHT22;34799;51.440;-2.534;2023-05-10T05:39:53;12.10;99.90
48988;DHT22;34799;51.440;-2.534;2023-05-10T05:42:21;12.50;99.90
48988;DHT22;34799;51.440;-2.534;2023-05-10T05:44:48;12.60;99.90
48988;DHT22;34799;51.440;-2.534;2023-05-10T05:47:15;12.30;99.90
48988;DHT22;34799;51.440;-2.534;2023-05-10T05:49:42;12.20;99.90
48988;DHT22;34799;51.440;-2.534;2023-05-10T05:52:13;12.30;99.90
48988;DHT22;34799;51.440;-2.534;2023-05-10T05:54:40;12.40;99.90
48988;DHT22;34799;51.440;-2.534;2023-05-10T05:57:07;12.40;99.90
48988;DHT22;34799;51.440;-2.534;2023-05-10T05:59:34;12.80;99.90
48988;DHT22;34799;51.440;-2.534;2023-05-10T06:02:01;12.40;99.90
48988;DHT22;34799;51.440;-2.534;2023-05-10T06:04:28;12.40;99.90
48988;DHT22;34799;51.440;-2.534;2023-05-10T06:06:55;12.60;99.90
48988;DHT22;34799;51.440;-2.534;2023-05-10T06:09:23;13.10;99.90
48988;DHT22;34799;51.440;-2.534;2023-05-10T06:11:52;12.60;99.90
48988;DHT22;34799;51.440;-2.534;2023-05-10T06:14:22;12.60;99.90
48988;DHT22;34799;51.440;-2.534;2023-05-10T06:16:49;12.70;99.90
48988;DHT22;34799;51.440;-2.534;2023-05-10T06:19:16;12.90;99.90
48988;DHT22;34799;51.440;-2.534;2023-05-10T06:21:44;12.80;99.90
48988;DHT22;34799;51.440;-2.534;2023-05-10T06:24:11;12.90;99.90
48988;DHT22;34799;51.440;-2.534;2023-05-10T06:26:39;13.00;99.90
48988;DHT22;34799;51.440;-2.534;2023-05-10T06:29:06;13.00;99.90
48988;DHT22;34799;51.440;-2.534;2023-05-10T06:31:33;13.10;99.90
48988;DHT22;34799;51.440;-2.534;2023-05-10T06:34:01;13.20;99.90
48988;DHT22;34799;51.440;-2.534;2023-05-10T06:36:28;13.20;99.90
48988;DHT22;34799;51.440;-2.534;2023-05-10T06:38:55;13.30;99.90
48988;DHT22;34799;51.440;-2.534;2023-05-10T06:41:22;13.30;99.90
48988;DHT22;34799;51.440;-2.534;2023-05-10T06:43:50;13.30;99.90
48988;DHT22;34799;51.440;-2.534;2023-05-10T06:46:19;13.40;99.90
48988;DHT22;34799;51.440;-2.534;2023-05-10T06:48:46;13.50;99.90
48988;DHT22;34799;51.440;-2.534;2023-05-10T06:51:13;13.60;99.90
48988;DHT22;34799;51.440;-2.534;2023-05-10T06:53:40;13.70;99.90
48988;DHT22;34799;51.440;-2.534;2023-05-10T06:56:07;13.70;99.90
48988;DHT22;34799;51.440;-2.534;2023-05-10T06:58:34;13.70;99.90
48988;DHT22;34799;51.440;-2.534;2023-05-10T07:01:06;13.60;99.90
48988;DHT22;34799;51.440;-2.534;2023-05-10T07:03:33;13.60;99.90
48988;DHT22;34799;51.440;-2.534;2023-05-10T07:06:04;13.50;99.90
48988;DHT22;34799;51.440;-2.534;2023-05-10T07:08:31;13.50;99.90
48988;DHT22;34799;51.440;-2.534;2023-05-10T07:11:04;13.50;99.90
48988;DHT22;34799;51.440;-2.534;2023-05-10T07:13:31;13.40;99.90
48988;DHT22;34799;51.440;-2.534;2023-05-10T07:15:59;13.40;99.90
48988;DHT22;34799;51.440;-2.534;2023-05-10T07:18:29;13.40;99.90
48988;DHT22;34799;51.440;-2.534;2023-05-10T07:20:57;13.30;99.90
48988;DHT22;34799;51.440;-2.534;2023-05-10T07:23:24;13.40;99.90
48988;DHT22;34799;51.440;-2.534;2023-05-10T07:25:51;13.40;99.90
48988;DHT22;34799;51.440;-2.534;2023-05-10T07:28:19;13.50;99.90
48988;DHT22;34799;51.440;-2.534;2023-05-10T07:30:46;13.50;99.90
48988;DHT22;34799;51.440;-2.534;2023-05-10T07:33:14;13.60;99.90
48988;DHT22;34799;51.440;-2.534;2023-05-10T07:35:42;13.50;99.90
48988;DHT22;34799;51.440;-2.534;2023-05-10T07:38:10;13.50;99.90
48988;DHT22;34799;51.440;-2.534;2023-05-10T07:40:39;13.50;99.90
48988;DHT22;34799;51.440;-2.534;2023-05-10T07:43:06;13.50;99.90
48988;DHT22;34799;51.440;-2.534;2023-05-10T07:45:33;13.60;99.90
48988;DHT22;34799;51.440;-2.534;2023-05-10T07:48:02;13.50;99.90
48988;DHT22;34799;51.440;-2.534;2023-05-10T07:50:29;13.50;99.90
48988;DHT22;34799;51.440;-2.534;2023-05-10T07:52:57;13.70;99.90
48988;DHT22;34799;51.440;-2.534;2023-05-10T07:55:24;13.50;99.90
48988;DHT22;34799;51.440;-2.534;2023-05-10T07:57:51;13.50;99.90
48988;DHT22;34799;51.440;-2.534;2023-05-10T08:00:19;13.50;99.90
48988;DHT22;34799;51.440;-2.534;2023-05-10T08:02:47;13.50;99.90
48988;DHT22;34799;51.440;-2.534;2023-05-10T08:05:16;13.60;99.90
48988;DHT22;34799;51.440;-2.534;2023-05-10T08:07:43;13.60;99.90
48988;DHT22;34799;51.440;-2.534;2023-05-10T08:10:10;13.50;99.90
48988;DHT22;34799;51.440;-2.534;2023-05-10T08:12:38;13.50;99.90
48988;DHT22;34799;51.440;-2.534;2023-05-10T08:15:06;13.50;99.90
48988;DHT22;34799;51.440;-2.534;2023-05-10T08:17:33;13.30;99.90
48988;DHT22;34799;51.440;-2.534;2023-05-10T08:20:02;13.30;99.90
48988;DHT22;34799;51.440;-2.534;2023-05-10T08:22:30;13.20;99.90
48988;DHT22;34799;51.440;-2.534;2023-05-10T08:24:57;13.30;99.90
48988;DHT22;34799;51.440;-2.534;2023-05-10T08:27:24;13.30;99.90
48988;DHT22;34799;51.440;-2.534;2023-05-10T08:29:51;13.40;99.90
48988;DHT22;34799;51.440;-2.534;2023-05-10T08:32:18;13.70;99.90
48988;DHT22;34799;51.440;-2.534;2023-05-10T08:34:45;13.40;99.90
48988;DHT22;34799;51.440;-2.534;2023-05-10T08:37:12;13.40;99.90
48988;DHT22;34799;51.440;-2.534;2023-05-10T08:39:39;13.50;99.90
48988;DHT22;34799;51.440;-2.534;2023-05-10T08:42:09;13.50;99.90
48988;DHT22;34799;51.440;-2.534;2023-05-10T08:44:37;13.60;99.90
48988;DHT22;34799;51.440;-2.534;2023-05-10T08:47:07;13.70;99.90
48988;DHT22;34799;51.440;-2.534;2023-05-10T08:49:37;13.90;99.90
48988;DHT22;34799;51.440;-2.534;2023-05-10T08:52:05;13.90;99.90
48988;DHT22;34799;51.440;-2.534;2023-05-10T08:54:34;14.00;99.90
48988;DHT22;34799;51.440;-2.534;2023-05-10T08:57:01;14.20;99.90
48988;DHT22;34799;51.440;-2.534;2023-05-10T08:59:28;14.20;99.90
48988;DHT22;34799;51.440;-2.534;2023-05-10T09:01:59;14.30;99.90
48988;DHT22;34799;51.440;-2.534;2023-05-10T09:04:27;16.20;99.90
48988;DHT22;34799;51.440;-2.534;2023-05-10T09:06:56;14.50;99.90
48988;DHT22;34799;51.440;-2.534;2023-05-10T09:09:26;14.40;99.90
48988;DHT22;34799;51.440;-2.534;2023-05-10T09:11:54;14.50;99.90
48988;DHT22;34799;51.440;-2.534;2023-05-10T09:14:23;14.50;99.90
48988;DHT22;34799;51.440;-2.534;2023-05-10T09:16:51;14.50;99.90
48988;DHT22;34799;51.440;-2.534;2023-05-10T09:19:20;14.60;99.90
48988;DHT22;34799;51.440;-2.534;2023-05-10T09:21:48;14.70;99.90
48988;DHT22;34799;51.440;-2.534;2023-05-10T09:24:16;14.70;99.90
48988;DHT22;34799;51.440;-2.534;2023-05-10T09:26:47;14.70;99.90
48988;DHT22;34799;51.440;-2.534;2023-05-10T09:29:15;14.70;99.90
48988;DHT22;34799;51.440;-2.534;2023-05-10T09:31:52;14.70;99.90
48988;DHT22;34799;51.440;-2.534;2023-05-10T09:34:30;14.60;99.90
48988;DHT22;34799;51.440;-2.534;2023-05-10T09:37:02;14.60;99.90
48988;DHT22;34799;51.440;-2.534;2023-05-10T09:39:37;14.70;99.90
48988;DHT22;34799;51.440;-2.534;2023-05-10T09:42:08;14.90;99.90
48988;DHT22;34799;51.440;-2.534;2023-05-10T09:44:36;15.00;99.90
48988;DHT22;34799;51.440;-2.534;2023-05-10T09:47:05;15.10;99.90
48988;DHT22;34799;51.440;-2.534;2023-05-10T09:49:32;15.00;99.90
48988;DHT22;34799;51.440;-2.534;2023-05-10T09:52:04;14.90;99.90
48988;DHT22;34799;51.440;-2.534;2023-05-10T09:54:33;14.90;99.90
48988;DHT22;34799;51.440;-2.534;2023-05-10T09:57:01;14.70;99.90
48988;DHT22;34799;51.440;-2.534;2023-05-10T09:59:29;14.70;99.90
48988;DHT22;34799;51.440;-2.534;2023-05-10T10:01:57;14.80;99.90
48988;DHT22;34799;51.440;-2.534;2023-05-10T10:04:25;14.80;99.90
48988;DHT22;34799;51.440;-2.534;2023-05-10T10:07:04;14.80;99.90
48988;DHT22;34799;51.440;-2.534;2023-05-10T10:09:32;14.80;99.90
48988;DHT22;34799;51.440;-2.534;2023-05-10T10:12:00;15.00;99.90
48988;DHT22;34799;51.440;-2.534;2023-05-10T10:14:29;15.10;99.90
48988;DHT22;34799;51.440;-2.534;2023-05-10T10:17:00;15.10;99.90
48988;DHT22;34799;51.440;-2.534;2023-05-10T10:19:35;15.10;99.90
48988;DHT22;34799;51.440;-2.534;2023-05-10T10:22:02;15.20;99.90
48988;DHT22;34799;51.440;-2.534;2023-05-10T10:24:29;15.30;99.90
48988;DHT22;34799;51.440;-2.534;2023-05-10T10:27:05;15.40;99.90
48988;DHT22;34799;51.440;-2.534;2023-05-10T10:29:43;15.40;99.90
48988;DHT22;34799;51.440;-2.534;2023-05-10T10:32:40;15.30;99.90
48988;DHT22;34799;51.440;-2.534;2023-05-10T10:35:09;15.40;99.90
48988;DHT22;34799;51.440;-2.534;2023-05-10T10:37:47;15.50;99.90
48988;DHT22;34799;51.440;-2.534;2023-05-10T10:40:30;15.60;99.90
48988;DHT22;34799;51.440;-2.534;2023-05-10T10:43:25;15.60;99.90
48988;DHT22;34799;51.440;-2.534;2023-05-10T10:46:15;15.60;99.90
48988;DHT22;34799;51.440;-2.534;2023-05-10T10:49:08;15.60;99.90
48988;DHT22;34799;51.440;-2.534;2023-05-10T10:51:39;15.60;99.90
48988;DHT22;34799;51.440;-2.534;2023-05-10T10:54:10;15.70;99.90
48988;DHT22;34799;51.440;-2.534;2023-05-10T10:56:38;15.60;99.90
48988;DHT22;34799;51.440;-2.534;2023-05-10T10:59:05;15.60;99.90
48988;DHT22;34799;51.440;-2.534;2023-05-10T11:01:35;15.70;99.90
48988;DHT22;34799;51.440;-2.534;2023-05-10T11:06:32;15.60;99.90
48988;DHT22;34799;51.440;-2.534;2023-05-10T11:09:08;15.80;99.90
48988;DHT22;34799;51.440;-2.534;2023-05-10T11:11:48;15.90;99.90
48988;DHT22;34799;51.440;-2.534;2023-05-10T11:14:20;16.00;99.90
48988;DHT22;34799;51.440;-2.534;2023-05-10T11:16:49;15.90;99.90
48988;DHT22;34799;51.440;-2.534;2023-05-10T11:19:18;15.80;99.90
48988;DHT22;34799;51.440;-2.534;2023-05-10T11:21:48;15.80;99.90
48988;DHT22;34799;51.440;-2.534;2023-05-10T11:24:18;15.80;99.90
48988;DHT22;34799;51.440;-2.534;2023-05-10T11:26:49;15.70;99.90
48988;DHT22;34799;51.440;-2.534;2023-05-10T11:29:16;15.60;99.90
48988;DHT22;34799;51.440;-2.534;2023-05-10T11:31:44;15.60;99.90
48988;DHT22;34799;51.440;-2.534;2023-05-10T11:34:23;15.70;99.90
48988;DHT22;34799;51.440;-2.534;2023-05-10T11:36:52;15.80;99.90
48988;DHT22;34799;51.440;-2.534;2023-05-10T11:39:21;15.80;99.90
48988;DHT22;34799;51.440;-2.534;2023-05-10T11:41:49;15.80;99.90
48988;DHT22;34799;51.440;-2.534;2023-05-10T11:44:18;15.90;99.90
48988;DHT22;34799;51.440;-2.534;2023-05-10T11:46:45;16.00;99.90
48988;DHT22;34799;51.440;-2.534;2023-05-10T11:49:12;16.10;99.90
48988;DHT22;34799;51.440;-2.534;2023-05-10T11:51:40;16.10;99.90
48988;DHT22;34799;51.440;-2.534;2023-05-10T11:54:10;16.20;99.90
48988;DHT22;34799;51.440;-2.534;2023-05-10T11:56:40;16.30;99.90
48988;DHT22;34799;51.440;-2.534;2023-05-10T11:59:07;16.40;99.90
48988;DHT22;34799;51.440;-2.534;2023-05-10T12:01:35;16.50;99.90
48988;DHT22;34799;51.440;-2.534;2023-05-10T12:04:02;16.50;99.90
48988;DHT22;34799;51.440;-2.534;2023-05-10T12:06:31;16.80;99.90
48988;DHT22;34799;51.440;-2.534;2023-05-10T12:09:06;16.80;99.90
48988;DHT22;34799;51.440;-2.534;2023-05-10T12:11:38;16.80;99.90
48988;DHT22;34799;51.440;-2.534;2023-05-10T12:14:08;16.80;99.90
48988;DHT22;34799;51.440;-2.534;2023-05-10T12:16:35;16.80;99.90
48988;DHT22;34799;51.440;-2.534;2023-05-10T12:19:04;16.70;99.90
48988;DHT22;34799;51.440;-2.534;2023-05-10T12:21:32;16.70;99.90
48988;DHT22;34799;51.440;-2.534;2023-05-10T12:24:02;16.60;99.90
48988;DHT22;34799;51.440;-2.534;2023-05-10T12:26:29;16.60;99.90
48988;DHT22;34799;51.440;-2.534;2023-05-10T12:29:15;16.60;99.90
48988;DHT22;34799;51.440;-2.534;2023-05-10T12:31:58;16.60;99.90
48988;DHT22;34799;51.440;-2.534;2023-05-10T12:34:31;16.60;99.90
48988;DHT22;34799;51.440;-2.534;2023-05-10T12:36:58;16.60;99.90
48988;DHT22;34799;51.440;-2.534;2023-05-10T12:39:25;16.80;99.90
48988;DHT22;34799;51.440;-2.534;2023-05-10T12:41:52;16.70;99.90
48988;DHT22;34799;51.440;-2.534;2023-05-10T12:44:19;16.80;99.90
48988;DHT22;34799;51.440;-2.534;2023-05-10T12:46:48;16.90;99.90
48988;DHT22;34799;51.440;-2.534;2023-05-10T12:49:15;17.00;99.90
48988;DHT22;34799;51.440;-2.534;2023-05-10T12:51:43;17.00;99.90
48988;DHT22;34799;51.440;-2.534;2023-05-10T12:54:10;16.90;99.90
48988;DHT22;34799;51.440;-2.534;2023-05-10T12:56:37;17.00;99.90
48988;DHT22;34799;51.440;-2.534;2023-05-10T12:59:04;17.20;99.90
48988;DHT22;34799;51.440;-2.534;2023-05-10T13:01:31;17.30;99.90
48988;DHT22;34799;51.440;-2.534;2023-05-10T13:03:58;17.30;99.90
48988;DHT22;34799;51.440;-2.534;2023-05-10T13:06:28;17.40;99.90
48988;DHT22;34799;51.440;-2.534;2023-05-10T13:08:55;17.40;99.90
48988;DHT22;34799;51.440;-2.534;2023-05-10T13:11:22;17.40;99.90
48988;DHT22;34799;51.440;-2.534;2023-05-10T13:13:49;17.30;99.90
48988;DHT22;34799;51.440;-2.534;2023-05-10T13:16:16;17.20;99.90
48988;DHT22;34799;51.440;-2.534;2023-05-10T13:18:43;17.20;99.90
48988;DHT22;34799;51.440;-2.534;2023-05-10T13:21:11;17.20;99.90
48988;DHT22;34799;51.440;-2.534;2023-05-10T13:23:38;17.20;99.90
48988;DHT22;34799;51.440;-2.534;2023-05-10T13:26:05;17.30;99.90
48988;DHT22;34799;51.440;-2.534;2023-05-10T13:28:32;17.50;99.90
48988;DHT22;34799;51.440;-2.534;2023-05-10T13:31:00;17.50;99.90
48988;DHT22;34799;51.440;-2.534;2023-05-10T13:33:27;17.40;99.90
48988;DHT22;34799;51.440;-2.534;2023-05-10T13:35:55;17.50;99.90
48988;DHT22;34799;51.440;-2.534;2023-05-10T13:38:22;17.60;99.90
48988;DHT22;34799;51.440;-2.534;2023-05-10T13:40:49;17.50;99.90
48988;DHT22;34799;51.440;-2.534;2023-05-10T13:43:19;17.50;99.90
48988;DHT22;34799;51.440;-2.534;2023-05-10T13:45:48;17.50;99.90
48988;DHT22;34799;51.440;-2.534;2023-05-10T13:48:15;17.70;99.90
48988;DHT22;34799;51.440;-2.534;2023-05-10T13:50:42;17.80;99.90
48988;DHT22;34799;51.440;-2.534;2023-05-10T13:53:09;17.90;99.90
48988;DHT22;34799;51.440;-2.534;2023-05-10T13:55:36;18.00;99.90
48988;DHT22;34799;51.440;-2.534;2023-05-10T13:58:03;18.00;99.90
48988;DHT22;34799;51.440;-2.534;2023-05-10T14:00:31;17.90;99.90
48988;DHT22;34799;51.440;-2.534;2023-05-10T14:02:58;17.60;99.90
48988;DHT22;34799;51.440;-2.534;2023-05-10T14:05:25;17.50;99.90
48988;DHT22;34799;51.440;-2.534;2023-05-10T14:07:54;17.60;99.90
48988;DHT22;34799;51.440;-2.534;2023-05-10T14:10:21;17.80;99.90
48988;DHT22;34799;51.440;-2.534;2023-05-10T14:12:49;18.00;99.90
48988;DHT22;34799;51.440;-2.534;2023-05-10T14:15:16;18.20;99.90
48988;DHT22;34799;51.440;-2.534;2023-05-10T14:17:43;18.30;99.90
48988;DHT22;34799;51.440;-2.534;2023-05-10T14:20:10;18.30;99.90
48988;DHT22;34799;51.440;-2.534;2023-05-10T14:22:38;18.10;99.90
48988;DHT22;34799;51.440;-2.534;2023-05-10T14:25:05;18.00;99.90
48988;DHT22;34799;51.440;-2.534;2023-05-10T14:27:34;17.60;99.90
48988;DHT22;34799;51.440;-2.534;2023-05-10T14:30:01;17.80;99.90
48988;DHT22;34799;51.440;-2.534;2023-05-10T14:32:28;17.40;99.90
48988;DHT22;34799;51.440;-2.534;2023-05-10T14:34:55;17.30;99.90
48988;DHT22;34799;51.440;-2.534;2023-05-10T14:37:23;17.50;99.90
48988;DHT22;34799;51.440;-2.534;2023-05-10T14:39:49;17.40;99.90
48988;DHT22;34799;51.440;-2.534;2023-05-10T14:42:16;17.40;99.90
48988;DHT22;34799;51.440;-2.534;2023-05-10T14:44:43;17.30;99.90
48988;DHT22;34799;51.440;-2.534;2023-05-10T14:47:11;17.20;99.90
48988;DHT22;34799;51.440;-2.534;2023-05-10T14:49:39;17.20;99.90
48988;DHT22;34799;51.440;-2.534;2023-05-10T14:52:07;17.10;99.90
48988;DHT22;34799;51.440;-2.534;2023-05-10T14:54:34;17.00;99.90
48988;DHT22;34799;51.440;-2.534;2023-05-10T14:57:01;17.00;99.90
48988;DHT22;34799;51.440;-2.534;2023-05-10T14:59:29;17.10;99.90
48988;DHT22;34799;51.440;-2.534;2023-05-10T15:01:56;17.20;99.90
48988;DHT22;34799;51.440;-2.534;2023-05-10T15:04:23;17.40;99.90
48988;DHT22;34799;51.440;-2.534;2023-05-10T15:06:50;17.60;99.90
48988;DHT22;34799;51.440;-2.534;2023-05-10T15:09:19;17.80;99.90
48988;DHT22;34799;51.440;-2.534;2023-05-10T15:11:47;17.50;99.90
48988;DHT22;34799;51.440;-2.534;2023-05-10T15:14:13;17.70;99.90
48988;DHT22;34799;51.440;-2.534;2023-05-10T15:16:40;17.80;99.90
48988;DHT22;34799;51.440;-2.534;2023-05-10T15:19:08;18.00;99.90
48988;DHT22;34799;51.440;-2.534;2023-05-10T15:21:34;18.10;99.90
48988;DHT22;34799;51.440;-2.534;2023-05-10T15:24:07;18.20;99.90
48988;DHT22;34799;51.440;-2.534;2023-05-10T15:26:34;18.40;99.90
48988;DHT22;34799;51.440;-2.534;2023-05-10T15:29:01;18.50;99.90
48988;DHT22;34799;51.440;-2.534;2023-05-10T15:31:29;18.30;99.90
48988;DHT22;34799;51.440;-2.534;2023-05-10T15:33:59;18.20;99.90
48988;DHT22;34799;51.440;-2.534;2023-05-10T15:36:27;18.00;99.90
48988;DHT22;34799;51.440;-2.534;2023-05-10T15:38:55;17.90;99.90
48988;DHT22;34799;51.440;-2.534;2023-05-10T15:41:22;17.80;99.90
48988;DHT22;34799;51.440;-2.534;2023-05-10T15:43:50;17.80;99.90
48988;DHT22;34799;51.440;-2.534;2023-05-10T15:46:17;17.70;99.90